»·PEaware :: SWA127 KLAX-KRNO

SWA127 :: KLAX-KRNO

FLIGHT INFORMATION

Flight Status: Arrived
Operator:
Southwest Airlines
More flights by this operator :: More flights under this callsign
Pilot: Steve F. (26981)
Aircraft: BOEING 737-800
(B738)
More flights by this aircraft type
Origin: KLAX Los Angeles Intl
United States
Destination: KRNO Reno/Tahoe Intl
United States
More flights between these airports :: More routes between these airports
Route: LADYJ4 CSTRO FMG
File this flight plan on PilotEdge
Remarks:
Altitude:
(Current/Filed)
38,000ft
Speed:
(Current/Filed)
430kts
Departed: 24-Feb-20 04:46 PM
Arrived: 24-Feb-20 05:45 PM
Distance/Time
Traveled:
340nm/0:59
Distance/Time
To Go:
Arrived

Flight Plot

Page will automatically refresh every two minutes.

Flight plan parsing failed; only flown route is shown


Map Options




Map Legend


Flown Route
Filed Route
Departure Airport
Arrival Airport
Navaid (VOR, NDB)
Fix

Horizontal Profiles

Position Reports

Time Latitude Longitude Heading Altitude Ground
Speed
24-Feb-20 16:23 33.947425 -118.401861 91 133ft 0kts
24-Feb-20 16:24 33.947425 -118.401861 91 133ft 0kts
24-Feb-20 16:25 33.947425 -118.401861 91 133ft 0kts
24-Feb-20 16:26 33.947425 -118.401861 91 133ft 0kts
24-Feb-20 16:27 33.947425 -118.401861 91 133ft 0kts
24-Feb-20 16:28 33.947425 -118.401861 91 134ft 0kts
24-Feb-20 16:29 33.947425 -118.401861 91 134ft 0kts
24-Feb-20 16:30 33.947425 -118.401861 91 134ft 0kts
24-Feb-20 16:31 33.947425 -118.401861 91 134ft 0kts
24-Feb-20 16:32 33.947425 -118.401861 91 134ft 0kts
24-Feb-20 16:33 33.947425 -118.401861 91 134ft 0kts
24-Feb-20 16:34 33.947425 -118.401861 91 134ft 0kts
24-Feb-20 16:35 33.947425 -118.401861 91 134ft 0kts
24-Feb-20 16:36 33.947425 -118.401861 91 134ft 0kts
24-Feb-20 16:37 33.947425 -118.401861 91 134ft 0kts
24-Feb-20 16:38 33.947420 -118.402063 81 134ft 2kts
24-Feb-20 16:39 33.946885 -118.402703 9 134ft 2kts
24-Feb-20 16:40 33.946774 -118.402716 1 134ft 0kts
24-Feb-20 16:41 33.946776 -118.402715 1 134ft 0kts
24-Feb-20 16:42 33.948134 -118.402862 353 134ft 5kts
24-Feb-20 16:43 33.949199 -118.401006 83 134ft 8kts
24-Feb-20 16:44 33.950402 -118.399693 270 134ft 6kts
24-Feb-20 16:45 33.947522 -118.428230 262 467ft 178kts
24-Feb-20 16:46 33.940569 -118.499726 267 2925ft 255kts
24-Feb-20 16:47 33.935946 -118.589259 265 4990ft 277kts
24-Feb-20 16:48 33.969892 -118.664677 333 7315ft 277kts
24-Feb-20 16:49 34.046873 -118.674177 3 10581ft 285kts
24-Feb-20 16:50 34.128055 -118.660438 9 13163ft 322kts
24-Feb-20 16:51 34.223412 -118.637982 5 15401ft 362kts
24-Feb-20 16:52 34.324429 -118.650434 347 18381ft 371kts
24-Feb-20 16:53 34.427875 -118.674410 348 20691ft 385kts
24-Feb-20 16:54 34.535335 -118.695391 349 22957ft 398kts
24-Feb-20 16:55 34.646682 -118.717106 349 25000ft 409kts
24-Feb-20 16:56 34.755608 -118.757244 331 26876ft 414kts
24-Feb-20 16:57 34.857497 -118.826160 329 28529ft 421kts
24-Feb-20 16:58 34.960235 -118.896939 328 29979ft 428kts
24-Feb-20 16:59 35.063540 -118.968161 328 31718ft 422kts
24-Feb-20 17:00 35.165590 -119.038686 329 33204ft 420kts
24-Feb-20 17:01 35.266888 -119.108840 329 34681ft 416kts
24-Feb-20 17:02 35.367357 -119.178911 328 35887ft 416kts
24-Feb-20 17:03 35.473891 -119.233638 348 37036ft 423kts
24-Feb-20 17:04 35.591550 -119.248102 350 38021ft 425kts
24-Feb-20 17:05 35.710084 -119.260537 350 38327ft 428kts
24-Feb-20 17:06 35.828173 -119.272441 351 38330ft 426kts
24-Feb-20 17:07 35.946133 -119.284161 351 38334ft 425kts
24-Feb-20 17:08 36.063898 -119.295856 351 38338ft 424kts
24-Feb-20 17:09 36.181756 -119.307569 351 38340ft 423kts
24-Feb-20 17:10 36.299140 -119.319271 351 38339ft 422kts
24-Feb-20 17:11 36.416664 -119.331186 351 38322ft 426kts
24-Feb-20 17:12 36.534834 -119.343024 351 38318ft 422kts
24-Feb-20 17:13 36.651902 -119.354930 351 38319ft 423kts
24-Feb-20 17:14 36.769905 -119.366518 352 38325ft 427kts
24-Feb-20 17:15 36.887293 -119.378346 351 38332ft 424kts
24-Feb-20 17:16 37.004879 -119.390475 352 38337ft 421kts
24-Feb-20 17:17 37.121822 -119.402260 352 38342ft 421kts
24-Feb-20 17:18 37.238101 -119.413671 351 38345ft 418kts
24-Feb-20 17:19 37.354149 -119.425886 351 38332ft 417kts
24-Feb-20 17:20 37.470543 -119.438008 351 38353ft 421kts
24-Feb-20 17:21 37.586397 -119.450163 351 38366ft 414kts
24-Feb-20 17:22 37.702357 -119.461800 352 38381ft 418kts
24-Feb-20 17:23 37.816993 -119.473724 352 38381ft 411kts
24-Feb-20 17:24 37.930909 -119.485580 352 37771ft 409kts
24-Feb-20 17:25 38.044430 -119.497427 352 35116ft 410kts
24-Feb-20 17:26 38.159093 -119.509442 352 32027ft 416kts
24-Feb-20 17:27 38.275517 -119.521673 353 28823ft 418kts
24-Feb-20 17:28 38.388788 -119.533592 353 26511ft 399kts
24-Feb-20 17:29 38.497194 -119.545040 353 24311ft 382kts
24-Feb-20 17:30 38.601600 -119.556103 353 22204ft 368kts
24-Feb-20 17:31 38.701951 -119.566761 353 20175ft 356kts
24-Feb-20 17:32 38.799104 -119.577132 353 18220ft 345kts
24-Feb-20 17:33 38.893859 -119.587226 353 16267ft 337kts
24-Feb-20 17:34 38.985638 -119.597071 353 14704ft 331kts
24-Feb-20 17:35 39.074666 -119.606580 353 13517ft 300kts
24-Feb-20 17:36 39.145345 -119.638146 324 12932ft 259kts
24-Feb-20 17:37 39.201891 -119.695225 324 11067ft 260kts
24-Feb-20 17:38 39.260822 -119.751880 325 9100ft 258kts
24-Feb-20 17:39 39.320938 -119.768405 357 8449ft 193kts
24-Feb-20 17:40 39.371888 -119.769054 358 7210ft 179kts
24-Feb-20 17:41 39.417165 -119.769421 359 6012ft 149kts
24-Feb-20 17:42 39.457413 -119.769421 3 4913ft 151kts
24-Feb-20 17:43 39.498475 -119.769233 359 4423ft 95kts
24-Feb-20 17:44 39.510355 -119.769270 339 4423ft 21kts
24-Feb-20 17:45 39.510776 -119.770366 280 4423ft 5kts
24-Feb-20 17:46 39.508124 -119.771604 179 4423ft 12kts
24-Feb-20 17:47 39.505934 -119.772831 181 4423ft 0kts
24-Feb-20 17:48 39.505934 -119.772831 181 4423ft 0kts

Navigation Log

Ident Type
Flight plan parsing failed, navigation log unavailable